Terminal Aerodrome Forecast
Issued by NWS Chicago, IL

Home | Current Version | Previous Version | Text Only | Print | Product List | Glossary Off
Versions: 1 2 3 4 5 6 7 8 9 10 11 12 13 14 15 16 17 18 19 20 21 22 23 24 25 26 27 28 29 30 31 32 33 34

000
FTUS43 KLOT 030500
TAFRFD
TAF
KRFD 030539Z 0306/0406 15008KT P6SM OVC080
     FM030900 15010KT P6SM VCSH OVC045
     FM031100 14013KT 1 1/2SM -SN BR BKN010 OVC030
     FM031400 16013G19KT 1SM -PLSN BR OVC007
     FM031600 18014KT 2SM -FZRAPL BR OVC004
     FM031800 20014KT 5SM -DZ BR OVC006
     FM032100 25014G22KT P6SM OVC015
     FM040000 29014G21KT P6SM OVC025=

USA.gov is the U.S. government's official web portal to all federal, state and local government web resources and services.